createdAt,value
2019-03-03T00:02:17.589Z,97629.95
2019-03-03T00:04:44.998Z,97634.34
2019-03-03T00:07:12.534Z,97625.36
2019-03-03T00:09:39.919Z,97623.18
2019-03-03T00:12:07.312Z,97620.98
2019-03-03T00:14:34.714Z,97623.33
2019-03-03T00:17:02.122Z,97624.08
2019-03-03T00:19:29.560Z,97614.88
2019-03-03T00:21:56.967Z,97611.53
2019-03-03T00:24:24.500Z,97610.55
2019-03-03T00:26:51.984Z,97601.39
2019-03-03T00:29:19.465Z,97597.50
2019-03-03T00:31:46.872Z,97597.61
2019-03-03T00:34:14.481Z,97589.09
2019-03-03T00:36:47.522Z,97583.08
2019-03-03T00:42:10.035Z,97577.17
2019-03-03T00:44:39.940Z,97590.77
2019-03-03T00:47:13.055Z,97594.30
2019-03-03T00:49:40.467Z,97583.16
2019-03-03T00:52:17.830Z,97584.58
2019-03-03T00:54:46.627Z,97587.62
2019-03-03T00:57:15.837Z,97588.93
2019-03-03T00:59:48.256Z,97593.57
2019-03-03T01:02:31.537Z,97594.16
2019-03-03T01:05:18.797Z,97586.69
2019-03-03T01:07:48.991Z,97581.69
2019-03-03T01:10:19.904Z,97579.69
2019-03-03T01:12:49.217Z,97586.68
2019-03-03T01:15:17.031Z,97587.89
2019-03-03T01:17:45.317Z,97584.37
2019-03-03T01:20:27.560Z,97580.47
2019-03-03T01:23:00.491Z,97584.59
2019-03-03T01:25:27.938Z,97585.41
2019-03-03T01:27:55.335Z,97589.33
2019-03-03T01:30:22.787Z,97587.95
2019-03-03T01:32:50.232Z,97581.03
2019-03-03T01:35:17.626Z,97583.38
2019-03-03T01:37:45.039Z,97576.29
2019-03-03T01:40:12.450Z,97577.39
2019-03-03T01:42:39.837Z,97583.88
2019-03-03T01:45:10.750Z,97576.19
2019-03-03T01:47:38.152Z,97576.66
2019-03-03T01:50:05.562Z,97580.93
2019-03-03T01:52:32.958Z,97583.54
2019-03-03T01:55:00.457Z,97583.02
2019-03-03T01:57:27.812Z,97580.45
2019-03-03T01:59:55.203Z,97583.43
2019-03-03T02:02:22.614Z,97583.95
2019-03-03T02:04:50.005Z,97584.31
2019-03-03T02:07:17.394Z,97583.60
2019-03-03T02:09:44.804Z,97585.42
2019-03-03T02:12:12.197Z,97574.98
2019-03-03T02:14:39.631Z,97572.79
2019-03-03T02:17:07.011Z,97574.82
2019-03-03T02:19:34.428Z,97567.35
2019-03-03T02:22:01.834Z,97560.45
2019-03-03T02:24:29.232Z,97557.66
2019-03-03T02:26:56.619Z,97563.75
2019-03-03T02:29:24.090Z,97560.55
2019-03-03T02:31:51.507Z,97566.55
2019-03-03T02:34:18.902Z,97561.77
2019-03-03T02:36:46.848Z,97560.70
2019-03-03T02:39:15.086Z,97569.44
2019-03-03T02:41:42.499Z,97560.17
2019-03-03T02:44:09.900Z,97562.77
2019-03-03T02:46:37.292Z,97553.14
2019-03-03T02:49:04.715Z,97560.70
2019-03-03T02:51:32.106Z,97555.81
2019-03-03T02:53:59.684Z,97558.70
2019-03-03T02:56:27.087Z,97553.03
2019-03-03T02:58:55.417Z,97557.51
2019-03-03T03:01:22.875Z,97557.27
2019-03-03T03:03:50.333Z,97563.55
2019-03-03T03:06:20.565Z,97563.64
2019-03-03T03:08:53.676Z,97560.95
2019-03-03T03:11:21.516Z,97564.05
2019-03-03T03:13:48.924Z,97565.32
2019-03-03T03:16:20.773Z,97570.44
2019-03-03T03:18:50.990Z,97564.89
2019-03-03T03:21:20.730Z,97562.76
2019-03-03T03:23:53.852Z,97557.73
2019-03-03T03:26:26.840Z,97559.03
2019-03-03T03:29:10.098Z,97559.86
2019-03-03T03:31:43.457Z,97570.91
2019-03-03T03:37:03.510Z,97561.33
2019-03-03T03:39:36.588Z,97550.34
2019-03-03T03:42:14.780Z,97548.08
2019-03-03T03:44:47.871Z,97546.92
2019-03-03T03:47:32.961Z,97545.81
2019-03-03T03:50:01.298Z,97550.84
2019-03-03T03:55:24.829Z,97556.77
2019-03-03T03:58:08.106Z,97555.77
2019-03-03T04:00:39.994Z,97552.85
2019-03-03T04:03:15.746Z,97554.33
2019-03-03T04:05:58.968Z,97566.25
2019-03-03T04:08:28.918Z,97566.33
2019-03-03T04:13:48.905Z,97561.87
2019-03-03T04:16:18.699Z,97553.36
2019-03-03T04:18:48.919Z,97561.36
2019-03-03T04:21:16.330Z,97570.88
2019-03-03T04:23:45.232Z,97559.92
2019-03-03T04:26:13.087Z,97570.94
2019-03-03T04:28:55.477Z,97570.38
2019-03-03T04:31:23.802Z,97567.47
2019-03-03T04:33:51.194Z,97560.55
2019-03-03T04:36:18.586Z,97570.48
2019-03-03T04:39:00.866Z,97563.20
2019-03-03T04:41:43.987Z,97567.41
2019-03-03T04:44:11.391Z,97559.81
2019-03-03T04:46:40.605Z,97556.17
2019-03-03T04:49:12.899Z,97562.61
2019-03-03T04:51:54.141Z,97566.88
2019-03-03T04:54:33.232Z,97572.73
2019-03-03T04:59:57.997Z,97582.83
2019-03-03T05:02:36.294Z,97572.21
2019-03-03T05:05:05.482Z,97570.72
2019-03-03T05:07:36.742Z,97567.66
2019-03-03T05:10:07.765Z,97562.50
2019-03-03T05:12:39.083Z,97573.33
2019-03-03T05:15:11.929Z,97572.02
2019-03-03T05:17:42.288Z,97566.60
2019-03-03T05:20:09.703Z,97563.87
2019-03-03T05:22:37.134Z,97557.54
2019-03-03T05:25:04.536Z,97556.16
2019-03-03T05:27:31.951Z,97550.57
2019-03-03T05:29:59.354Z,97549.27
2019-03-03T05:32:26.825Z,97539.84
2019-03-03T05:34:54.206Z,97532.47
2019-03-03T05:37:21.613Z,97527.52
2019-03-03T05:39:49.043Z,97528.66
2019-03-03T05:42:16.439Z,97530.03
2019-03-03T05:44:43.853Z,97536.78
2019-03-03T05:47:11.272Z,97531.46
2019-03-03T05:49:38.684Z,97534.78
2019-03-03T05:52:06.080Z,97529.54
2019-03-03T05:54:33.495Z,97532.64
2019-03-03T05:57:00.901Z,97533.38
2019-03-03T05:59:28.315Z,97537.74
2019-03-03T06:01:55.705Z,97535.40
2019-03-03T06:04:23.107Z,97533.67
2019-03-03T06:06:50.646Z,97530.41
2019-03-03T06:09:18.138Z,97526.22
2019-03-03T06:11:45.551Z,97524.87
2019-03-03T06:14:12.997Z,97529.45
2019-03-03T06:16:40.407Z,97516.61
2019-03-03T06:19:07.859Z,97521.88
2019-03-03T06:21:35.246Z,97521.37
2019-03-03T06:24:02.791Z,97526.16
2019-03-03T06:26:30.182Z,97524.37
2019-03-03T06:28:57.583Z,97529.16
2019-03-03T06:31:25.011Z,97525.09
2019-03-03T06:33:52.421Z,97518.88
2019-03-03T06:36:19.866Z,97518.70
2019-03-03T06:38:47.269Z,97521.92
2019-03-03T06:41:14.771Z,97517.49
2019-03-03T06:43:42.164Z,97522.90
2019-03-03T06:46:09.563Z,97529.17
2019-03-03T06:48:37.219Z,97538.63
2019-03-03T06:51:04.783Z,97539.25
2019-03-03T06:53:32.173Z,97545.98
2019-03-03T06:55:59.779Z,97540.65
2019-03-03T06:58:27.167Z,97540.15
2019-03-03T07:00:54.588Z,97543.14
2019-03-03T07:03:21.983Z,97545.17
2019-03-03T07:05:49.558Z,97548.67
2019-03-03T07:08:16.986Z,97546.75
2019-03-03T07:10:44.388Z,97542.61
2019-03-03T07:13:11.799Z,97540.78
2019-03-03T07:15:39.186Z,97535.66
2019-03-03T07:18:06.616Z,97536.39
2019-03-03T07:20:34.099Z,97525.36
2019-03-03T07:23:01.548Z,97519.81
2019-03-03T07:25:28.947Z,97531.28
2019-03-03T07:27:56.334Z,97536.67
2019-03-03T07:30:23.927Z,97526.80
2019-03-03T07:33:06.198Z,97530.87
2019-03-03T07:35:33.627Z,97535.52
2019-03-03T07:38:01.018Z,97531.95
2019-03-03T07:40:28.423Z,97532.39
2019-03-03T07:42:55.886Z,97541.23
2019-03-03T07:45:23.283Z,97546.19
2019-03-03T07:47:50.703Z,97544.80
2019-03-03T07:50:18.147Z,97547.11
2019-03-03T07:52:45.563Z,97550.48
2019-03-03T07:55:13.061Z,97546.80
2019-03-03T07:57:40.448Z,97541.53
2019-03-03T08:00:10.631Z,97548.28
2019-03-03T08:02:38.179Z,97536.62
2019-03-03T08:05:05.586Z,97537.79
2019-03-03T08:07:33.003Z,97541.32
2019-03-03T08:10:00.403Z,97545.91
2019-03-03T08:12:27.814Z,97544.44
2019-03-03T08:14:55.228Z,97541.34
2019-03-03T08:17:22.619Z,97545.45
2019-03-03T08:19:50.025Z,97540.83
2019-03-03T08:22:17.082Z,97534.75
2019-03-03T08:24:44.497Z,97535.05
2019-03-03T08:27:11.904Z,97536.31
2019-03-03T08:29:39.308Z,97528.55
2019-03-03T08:32:06.711Z,97533.70
2019-03-03T08:34:34.214Z,97534.28
2019-03-03T08:37:01.656Z,97531.47
2019-03-03T08:39:29.215Z,97528.54
2019-03-03T08:41:56.606Z,97532.81
2019-03-03T08:44:24.079Z,97537.63
2019-03-03T08:47:08.210Z,97540.44
2019-03-03T08:49:35.654Z,97536.32
2019-03-03T08:52:05.652Z,97531.55
2019-03-03T08:54:38.657Z,97527.39
2019-03-03T08:57:06.431Z,97515.25
2019-03-03T08:59:39.344Z,97513.08
2019-03-03T09:02:06.750Z,97516.67
2019-03-03T09:04:44.869Z,97517.38
2019-03-03T09:07:28.101Z,97500.45
2019-03-03T09:09:59.963Z,97499.55
2019-03-03T09:12:42.590Z,97504.05
2019-03-03T09:15:11.510Z,97508.96
2019-03-03T09:17:42.018Z,97509.22
2019-03-03T09:20:19.326Z,97505.47
2019-03-03T09:22:53.186Z,97499.19
2019-03-03T09:25:25.809Z,97499.44
2019-03-03T09:28:09.861Z,97494.11
2019-03-03T09:30:37.762Z,97488.24
2019-03-03T09:33:06.223Z,97483.77
2019-03-03T09:35:49.577Z,97474.16
2019-03-03T09:38:32.322Z,97459.73
2019-03-03T09:41:05.279Z,97466.45
2019-03-03T09:43:49.032Z,97463.85
2019-03-03T09:46:21.651Z,97462.34
2019-03-03T09:48:54.545Z,97461.75
2019-03-03T09:51:22.767Z,97464.98
2019-03-03T09:53:57.592Z,97457.13
2019-03-03T09:56:30.911Z,97458.16
2019-03-03T10:01:56.151Z,97465.86
2019-03-03T10:04:24.500Z,97465.06
2019-03-03T10:07:10.886Z,97459.25
2019-03-03T10:09:43.889Z,97450.02
2019-03-03T10:12:12.128Z,97447.80
2019-03-03T10:14:41.439Z,97445.70
2019-03-03T10:17:10.890Z,97437.80
2019-03-03T10:19:41.765Z,97438.59
2019-03-03T10:22:11.591Z,97442.25
2019-03-03T10:27:38.602Z,97430.44
2019-03-03T10:30:10.332Z,97434.61
2019-03-03T10:32:37.736Z,97434.28
2019-03-03T10:35:06.955Z,97435.64
2019-03-03T10:37:34.381Z,97428.73
2019-03-03T10:42:57.386Z,97421.98
2019-03-03T10:45:30.507Z,97430.72
2019-03-03T10:48:03.455Z,97422.94
2019-03-03T10:50:31.674Z,97424.53
2019-03-03T10:53:01.586Z,97422.30
2019-03-03T10:55:34.436Z,97418.39
2019-03-03T10:58:17.802Z,97423.53
2019-03-03T11:03:46.731Z,97401.92
2019-03-03T11:06:14.207Z,97399.02
2019-03-03T11:08:47.204Z,97395.17
2019-03-03T11:11:20.223Z,97391.97
2019-03-03T11:14:03.534Z,97378.91
2019-03-03T11:16:36.453Z,97358.67
2019-03-03T11:19:03.817Z,97354.08
2019-03-03T11:21:48.604Z,97347.41
2019-03-03T11:24:19.272Z,97357.21
2019-03-03T11:26:46.950Z,97353.77
2019-03-03T11:29:29.716Z,97348.99
2019-03-03T11:34:56.767Z,97333.42
2019-03-03T11:37:29.952Z,97326.28
2019-03-03T11:40:00.341Z,97321.48
2019-03-03T11:42:27.581Z,97326.72
2019-03-03T11:44:55.195Z,97318.33
2019-03-03T11:47:22.592Z,97315.92
2019-03-03T11:49:50.005Z,97334.06
2019-03-03T11:52:23.148Z,97334.41
2019-03-03T11:55:01.324Z,97333.92
2019-03-03T11:57:30.219Z,97336.33
2019-03-03T12:00:01.461Z,97326.36
2019-03-03T12:05:43.620Z,97317.97
2019-03-03T12:11:08.133Z,97321.30
2019-03-03T12:13:37.919Z,97321.18
2019-03-03T12:16:05.351Z,97301.01
2019-03-03T12:18:39.059Z,97290.06
2019-03-03T12:21:21.389Z,97278.73
2019-03-03T12:23:51.179Z,97292.40
2019-03-03T12:26:19.372Z,97276.16
2019-03-03T12:28:50.272Z,97270.91
2019-03-03T12:31:20.573Z,97276.36
2019-03-03T12:36:58.844Z,97271.05
2019-03-03T12:42:24.729Z,97258.61
2019-03-03T12:45:09.924Z,97249.61
2019-03-03T12:47:42.335Z,97248.55
2019-03-03T12:50:11.455Z,97237.08
2019-03-03T12:52:42.778Z,97248.02
2019-03-03T12:55:12.697Z,97241.75
2019-03-03T12:57:55.824Z,97230.89
2019-03-03T13:00:28.801Z,97222.50
2019-03-03T13:03:02.031Z,97220.39
2019-03-03T13:05:35.247Z,97207.95
2019-03-03T13:08:05.245Z,97197.25
2019-03-03T13:10:47.526Z,97201.64
2019-03-03T13:13:15.451Z,97191.38
2019-03-03T13:15:42.918Z,97180.71
2019-03-03T13:18:13.244Z,97180.47
2019-03-03T13:20:55.553Z,97177.03
2019-03-03T13:23:23.810Z,97161.25
2019-03-03T13:25:51.318Z,97158.16
2019-03-03T13:31:12.750Z,97145.59
2019-03-03T13:33:56.239Z,97150.59
2019-03-03T13:36:24.147Z,97142.91
2019-03-03T13:38:55.969Z,97128.51
2019-03-03T13:41:23.402Z,97128.53
2019-03-03T13:43:50.816Z,97123.19
2019-03-03T13:46:18.224Z,97113.95
2019-03-03T13:48:45.634Z,97118.07
2019-03-03T13:51:13.140Z,97128.01
2019-03-03T13:53:40.534Z,97128.77
2019-03-03T13:56:07.971Z,97132.78
2019-03-03T13:58:35.428Z,97131.62
2019-03-03T14:01:02.860Z,97128.47
2019-03-03T14:03:30.632Z,97127.55
2019-03-03T14:05:58.190Z,97129.34
2019-03-03T14:08:25.624Z,97126.20
2019-03-03T14:10:53.061Z,97135.81
2019-03-03T14:13:20.462Z,97134.91
2019-03-03T14:15:47.867Z,97138.55
2019-03-03T14:18:15.339Z,97129.28
2019-03-03T14:20:42.759Z,97127.87
2019-03-03T14:23:10.235Z,97139.97
2019-03-03T14:25:37.655Z,97146.99
2019-03-03T14:28:05.090Z,97141.74
2019-03-03T14:30:32.487Z,97133.38
2019-03-03T14:32:59.963Z,97124.73
2019-03-03T14:35:27.405Z,97122.41
2019-03-03T14:37:54.812Z,97111.87
2019-03-03T14:40:22.247Z,97117.16
2019-03-03T14:42:49.656Z,97113.23
2019-03-03T14:45:17.095Z,97100.91
2019-03-03T14:47:44.686Z,97097.34
2019-03-03T14:50:12.163Z,97100.98
2019-03-03T14:52:39.791Z,97102.25
2019-03-03T14:55:08.154Z,97086.86
2019-03-03T14:57:35.609Z,97065.47
2019-03-03T15:00:03.051Z,97067.03
2019-03-03T15:02:30.595Z,97055.32
2019-03-03T15:04:57.989Z,97043.91
2019-03-03T15:07:25.387Z,97033.20
2019-03-03T15:09:52.829Z,97044.30
2019-03-03T15:12:21.147Z,97042.41
2019-03-03T15:14:48.585Z,97040.16
2019-03-03T15:17:16.014Z,97037.89
2019-03-03T15:19:43.449Z,97027.65
2019-03-03T15:22:10.851Z,97016.42
2019-03-03T15:24:38.249Z,97011.28
2019-03-03T15:27:05.216Z,97008.52
2019-03-03T15:29:32.625Z,96998.48
2019-03-03T15:32:00.073Z,97004.75
2019-03-03T15:34:27.502Z,96998.86
2019-03-03T15:36:54.995Z,97008.16
2019-03-03T15:39:22.442Z,97014.30
2019-03-03T15:41:49.836Z,97011.66
2019-03-03T15:44:17.683Z,96998.37
2019-03-03T15:46:45.125Z,96987.98
2019-03-03T15:49:12.623Z,96977.33
2019-03-03T15:51:40.008Z,96980.53
2019-03-03T15:54:07.423Z,96986.52
2019-03-03T15:56:34.817Z,96969.22
2019-03-03T15:59:02.218Z,96971.16
2019-03-03T16:01:29.629Z,96986.59
2019-03-03T16:03:57.115Z,96999.27
2019-03-03T16:06:24.507Z,96985.69
2019-03-03T16:08:51.912Z,96986.65
2019-03-03T16:11:19.348Z,96983.33
2019-03-03T16:13:46.774Z,96971.03
2019-03-03T16:16:14.209Z,96979.77
2019-03-03T16:18:41.642Z,96982.41
2019-03-03T16:21:09.205Z,96965.55
2019-03-03T16:23:36.692Z,96961.52
2019-03-03T16:26:04.252Z,96945.84
2019-03-03T16:28:31.680Z,96940.33
2019-03-03T16:30:59.132Z,96938.74
2019-03-03T16:33:26.578Z,96939.09
2019-03-03T16:35:54.811Z,96926.01
2019-03-03T16:38:22.315Z,96925.12
2019-03-03T16:40:49.750Z,96925.06
2019-03-03T16:43:17.171Z,96934.03
2019-03-03T16:45:44.597Z,96933.67
2019-03-03T16:48:12.004Z,96915.14
2019-03-03T16:50:39.459Z,96913.05
2019-03-03T16:53:06.851Z,96907.09
2019-03-03T16:55:34.275Z,96908.24
2019-03-03T16:58:01.695Z,96902.34
2019-03-03T17:00:29.094Z,96887.77
2019-03-03T17:02:56.487Z,96870.91
2019-03-03T17:05:24.031Z,96851.73
2019-03-03T17:07:51.460Z,96850.47
2019-03-03T17:10:19.567Z,96859.12
2019-03-03T17:12:46.954Z,96864.09
2019-03-03T17:15:14.399Z,96862.69
2019-03-03T17:17:41.784Z,96859.06
2019-03-03T17:20:09.206Z,96847.52
2019-03-03T17:22:36.600Z,96856.34
2019-03-03T17:25:13.004Z,96850.27
2019-03-03T17:27:40.417Z,96856.16
2019-03-03T17:30:09.500Z,96840.75
2019-03-03T17:32:36.933Z,96838.67
2019-03-03T17:35:04.364Z,96841.43
2019-03-03T17:37:32.799Z,96848.02
2019-03-03T17:40:00.315Z,96843.00
2019-03-03T17:42:27.681Z,96840.55
2019-03-03T17:44:55.091Z,96833.91
2019-03-03T17:47:22.503Z,96834.84
2019-03-03T17:49:49.972Z,96838.52
2019-03-03T17:52:17.414Z,96853.47
2019-03-03T17:54:44.883Z,96850.89
2019-03-03T17:57:12.292Z,96860.52
2019-03-03T17:59:39.708Z,96863.50
2019-03-03T18:02:08.048Z,96858.86
2019-03-03T18:04:35.489Z,96857.00
2019-03-03T18:07:03.602Z,96854.30
2019-03-03T18:09:31.394Z,96861.47
2019-03-03T18:11:58.855Z,96866.31
2019-03-03T18:14:26.306Z,96868.01
2019-03-03T18:16:54.107Z,96870.28
2019-03-03T18:19:21.715Z,96865.42
2019-03-03T18:21:49.216Z,96869.48
2019-03-03T18:24:16.616Z,96862.81
2019-03-03T18:26:44.059Z,96855.31
2019-03-03T18:29:11.539Z,96848.73
2019-03-03T18:31:38.942Z,96840.30
2019-03-03T18:34:06.573Z,96837.97
2019-03-03T18:36:33.967Z,96837.44
2019-03-03T18:39:01.375Z,96822.05
2019-03-03T18:41:28.827Z,96822.30
2019-03-03T18:43:56.224Z,96816.25
2019-03-03T18:46:23.652Z,96829.67
2019-03-03T18:48:51.061Z,96828.17
2019-03-03T18:51:18.497Z,96826.66
2019-03-03T18:53:45.992Z,96826.12
2019-03-03T18:56:13.399Z,96834.61
2019-03-03T18:58:40.811Z,96818.24
2019-03-03T19:01:08.219Z,96808.70
2019-03-03T19:03:35.625Z,96810.22
2019-03-03T19:06:03.076Z,96806.76
2019-03-03T19:08:30.533Z,96813.94
2019-03-03T19:10:57.977Z,96808.67
2019-03-03T19:13:25.479Z,96805.32
2019-03-03T19:15:52.882Z,96805.08
2019-03-03T19:18:20.341Z,96810.16
2019-03-03T19:20:47.773Z,96799.98
2019-03-03T19:23:15.211Z,96797.92
2019-03-03T19:25:42.615Z,96801.31
2019-03-03T19:28:10.019Z,96792.40
2019-03-03T19:30:37.424Z,96789.16
2019-03-03T19:33:23.391Z,96789.58
2019-03-03T19:35:50.809Z,96781.23
2019-03-03T19:38:18.211Z,96782.59
2019-03-03T19:40:45.639Z,96789.05
2019-03-03T19:43:13.760Z,96793.66
2019-03-03T19:45:42.009Z,96790.19
2019-03-03T19:48:09.520Z,96798.19
2019-03-03T19:50:36.913Z,96794.56
2019-03-03T19:53:04.329Z,96791.57
2019-03-03T19:55:31.749Z,96787.26
2019-03-03T19:57:59.167Z,96784.98
2019-03-03T20:00:35.375Z,96778.75
2019-03-03T20:02:55.591Z,96779.66
2019-03-03T20:05:23.127Z,96775.51
2019-03-03T20:07:50.538Z,96769.66
2019-03-03T20:10:17.947Z,96772.30
2019-03-03T20:12:45.427Z,96773.92
2019-03-03T20:15:12.841Z,96773.41
2019-03-03T20:17:40.249Z,96780.45
2019-03-03T20:20:09.438Z,96778.59
2019-03-03T20:22:37.716Z,96775.75
2019-03-03T20:25:04.247Z,96775.75
2019-03-03T20:27:31.646Z,96778.79
2019-03-03T20:29:59.065Z,96787.80
2019-03-03T20:32:26.499Z,96783.69
2019-03-03T20:34:53.979Z,96780.30
2019-03-03T20:37:21.516Z,96792.20
2019-03-03T20:39:48.922Z,96793.13
2019-03-03T20:42:16.387Z,96789.91
2019-03-03T20:44:43.802Z,96784.34
2019-03-03T20:47:11.227Z,96784.48
2019-03-03T20:49:38.816Z,96782.27
2019-03-03T20:52:06.834Z,96783.20
2019-03-03T20:54:34.246Z,96778.95
2019-03-03T20:57:01.666Z,96780.23
2019-03-03T20:59:29.229Z,96780.77
2019-03-03T21:01:56.616Z,96788.02
2019-03-03T21:04:24.034Z,96775.35
2019-03-03T21:06:51.472Z,96769.66
2019-03-03T21:09:18.917Z,96772.73
2019-03-03T21:11:46.386Z,96759.52
2019-03-03T21:14:13.810Z,96754.16
2019-03-03T21:16:41.322Z,96760.77
2019-03-03T21:19:08.720Z,96757.82
2019-03-03T21:21:36.158Z,96747.41
2019-03-03T21:24:03.626Z,96745.77
2019-03-03T21:26:31.035Z,96738.90
2019-03-03T21:28:58.494Z,96739.73
2019-03-03T21:31:25.902Z,96736.28
2019-03-03T21:33:53.394Z,96728.79
2019-03-03T21:36:20.816Z,96725.79
2019-03-03T21:38:48.380Z,96721.19
2019-03-03T21:41:15.795Z,96722.92
2019-03-03T21:43:43.222Z,96719.86
2019-03-03T21:46:11.169Z,96713.95
2019-03-03T21:48:38.603Z,96714.45
2019-03-03T21:51:06.797Z,96708.61
2019-03-03T21:53:34.523Z,96710.03
2019-03-03T21:56:01.974Z,96711.91
2019-03-03T21:58:29.397Z,96702.87
2019-03-03T22:00:56.848Z,96698.81
2019-03-03T22:03:25.266Z,96698.52
2019-03-03T22:05:52.671Z,96690.12
2019-03-03T22:08:20.086Z,96689.42
2019-03-03T22:10:47.557Z,96679.61
2019-03-03T22:13:15.003Z,96677.95
2019-03-03T22:15:42.420Z,96674.54
2019-03-03T22:18:10.761Z,96673.48
2019-03-03T22:20:38.163Z,96671.30
2019-03-03T22:23:05.587Z,96655.59
2019-03-03T22:25:33.017Z,96657.39
2019-03-03T22:28:00.434Z,96650.56
2019-03-03T22:30:28.003Z,96645.48
2019-03-03T22:32:55.402Z,96641.09
2019-03-03T22:35:22.817Z,96640.66
2019-03-03T22:37:50.223Z,96625.73
2019-03-03T22:40:18.361Z,96620.16
2019-03-03T22:42:45.763Z,96625.01
2019-03-03T22:45:14.954Z,96624.77
2019-03-03T22:47:42.346Z,96615.67
2019-03-03T22:50:10.266Z,96606.61
2019-03-03T22:52:37.251Z,96594.80
2019-03-03T22:55:04.246Z,96589.05
2019-03-03T22:57:31.235Z,96586.30
2019-03-03T22:59:58.177Z,96587.50
2019-03-03T23:02:25.126Z,96585.75
2019-03-03T23:04:52.814Z,96585.50
2019-03-03T23:07:19.785Z,96596.53
2019-03-03T23:09:46.774Z,96585.79
2019-03-03T23:15:13.015Z,96586.50
2019-03-03T23:17:41.889Z,96599.88
2019-03-03T23:20:14.813Z,96601.38
2019-03-03T23:22:46.771Z,96588.00
2019-03-03T23:25:26.341Z,96598.11
2019-03-03T23:27:53.305Z,96598.59
2019-03-03T23:30:20.242Z,96602.77
2019-03-03T23:32:47.287Z,96594.28
2019-03-03T23:35:14.262Z,96594.09
2019-03-03T23:37:41.233Z,96592.89
2019-03-03T23:40:08.245Z,96586.81
2019-03-03T23:42:35.193Z,96574.52
2019-03-03T23:45:02.165Z,96560.45
2019-03-03T23:47:29.107Z,96558.77
2019-03-03T23:49:56.136Z,96556.92
2019-03-03T23:52:23.082Z,96549.98
2019-03-03T23:54:50.066Z,96537.76
2019-03-03T23:57:17.017Z,96539.45
2019-03-03T23:59:43.979Z,96558.02
